sensor_id;sensor_type;location;lat;lon;timestamp;pressure;altitude;pressure_sealevel;temperature;humidity
19884;BME280;10104;50.732;10.174;2023-03-25T00:00:38;96822.44;;;9.90;90.60
19884;BME280;10104;50.732;10.174;2023-03-25T00:03:00;96829.84;;;9.75;91.04
19884;BME280;10104;50.732;10.174;2023-03-25T00:05:21;96819.19;;;9.88;90.50
19884;BME280;10104;50.732;10.174;2023-03-25T00:07:44;96816.28;;;10.03;88.95
19884;BME280;10104;50.732;10.174;2023-03-25T00:10:06;96822.72;;;9.69;90.05
19884;BME280;10104;50.732;10.174;2023-03-25T00:12:28;96821.97;;;9.55;91.32
19884;BME280;10104;50.732;10.174;2023-03-25T00:14:51;96830.50;;;9.51;91.00
19884;BME280;10104;50.732;10.174;2023-03-25T00:17:15;96828.66;;;9.51;90.70
19884;BME280;10104;50.732;10.174;2023-03-25T00:19:37;96829.31;;;9.33;92.38
19884;BME280;10104;50.732;10.174;2023-03-25T00:21:59;96829.91;;;9.49;92.06
19884;BME280;10104;50.732;10.174;2023-03-25T00:24:20;96831.69;;;9.61;91.69
19884;BME280;10104;50.732;10.174;2023-03-25T00:26:46;96828.59;;;9.78;90.49
19884;BME280;10104;50.732;10.174;2023-03-25T00:29:08;96837.38;;;9.65;89.43
19884;BME280;10104;50.732;10.174;2023-03-25T00:31:30;96845.75;;;9.55;89.97
19884;BME280;10104;50.732;10.174;2023-03-25T00:33:51;96828.88;;;9.56;88.74
19884;BME280;10104;50.732;10.174;2023-03-25T00:36:13;96839.66;;;9.55;89.91
19884;BME280;10104;50.732;10.174;2023-03-25T00:38:35;96827.59;;;9.72;88.83
19884;BME280;10104;50.732;10.174;2023-03-25T00:41:22;96841.81;;;9.71;88.79
19884;BME280;10104;50.732;10.174;2023-03-25T00:43:45;96836.38;;;9.59;87.67
19884;BME280;10104;50.732;10.174;2023-03-25T00:46:07;96838.66;;;9.43;89.65
19884;BME280;10104;50.732;10.174;2023-03-25T00:48:29;96829.75;;;9.30;89.14
19884;BME280;10104;50.732;10.174;2023-03-25T00:50:50;96827.88;;;9.44;89.72
19884;BME280;10104;50.732;10.174;2023-03-25T00:53:12;96827.25;;;9.49;89.33
19884;BME280;10104;50.732;10.174;2023-03-25T00:55:33;96806.13;;;9.49;89.48
19884;BME280;10104;50.732;10.174;2023-03-25T00:57:54;96801.66;;;9.43;91.25
19884;BME280;10104;50.732;10.174;2023-03-25T01:00:17;96796.59;;;9.34;90.31
19884;BME280;10104;50.732;10.174;2023-03-25T01:02:38;96791.53;;;9.26;90.51
19884;BME280;10104;50.732;10.174;2023-03-25T01:05:00;96798.06;;;9.24;91.20
19884;BME280;10104;50.732;10.174;2023-03-25T01:07:22;96793.16;;;9.21;90.68
19884;BME280;10104;50.732;10.174;2023-03-25T01:09:43;96797.25;;;9.17;91.22
19884;BME280;10104;50.732;10.174;2023-03-25T01:12:07;96804.38;;;9.03;90.80
19884;BME280;10104;50.732;10.174;2023-03-25T01:14:28;96793.63;;;8.98;91.07
19884;BME280;10104;50.732;10.174;2023-03-25T01:16:50;96799.09;;;8.83;92.23
19884;BME280;10104;50.732;10.174;2023-03-25T01:19:12;96803.19;;;8.79;90.63
19884;BME280;10104;50.732;10.174;2023-03-25T01:21:34;96801.75;;;8.83;92.71
19884;BME280;10104;50.732;10.174;2023-03-25T01:23:57;96800.16;;;8.82;92.09
19884;BME280;10104;50.732;10.174;2023-03-25T01:26:18;96799.72;;;8.85;91.86
19884;BME280;10104;50.732;10.174;2023-03-25T01:28:41;96797.72;;;8.87;92.35
19884;BME280;10104;50.732;10.174;2023-03-25T01:31:05;96799.09;;;8.90;91.87
19884;BME280;10104;50.732;10.174;2023-03-25T01:33:27;96795.66;;;8.89;92.66
19884;BME280;10104;50.732;10.174;2023-03-25T01:35:48;96804.00;;;8.93;91.87
19884;BME280;10104;50.732;10.174;2023-03-25T01:38:10;96814.13;;;8.89;92.75
19884;BME280;10104;50.732;10.174;2023-03-25T01:40:32;96816.56;;;8.84;93.07
19884;BME280;10104;50.732;10.174;2023-03-25T01:42:53;96812.72;;;8.87;93.10
19884;BME280;10104;50.732;10.174;2023-03-25T01:45:23;96804.59;;;8.95;92.17
19884;BME280;10104;50.732;10.174;2023-03-25T01:47:46;96795.88;;;8.95;91.85
19884;BME280;10104;50.732;10.174;2023-03-25T01:50:08;96796.25;;;8.98;93.61
19884;BME280;10104;50.732;10.174;2023-03-25T01:52:35;96799.31;;;8.95;92.14
19884;BME280;10104;50.732;10.174;2023-03-25T01:54:57;96793.00;;;8.89;92.37
19884;BME280;10104;50.732;10.174;2023-03-25T01:57:21;96788.53;;;8.97;93.21
19884;BME280;10104;50.732;10.174;2023-03-25T01:59:43;96792.00;;;8.90;91.72
19884;BME280;10104;50.732;10.174;2023-03-25T02:02:06;96795.06;;;8.94;91.53
19884;BME280;10104;50.732;10.174;2023-03-25T02:04:38;96804.00;;;8.93;92.37
19884;BME280;10104;50.732;10.174;2023-03-25T02:07:05;96805.63;;;8.87;93.83
19884;BME280;10104;50.732;10.174;2023-03-25T02:09:29;96789.38;;;8.77;92.72
19884;BME280;10104;50.732;10.174;2023-03-25T02:11:50;96793.44;;;8.80;93.36
19884;BME280;10104;50.732;10.174;2023-03-25T02:14:19;96788.16;;;8.73;93.00
19884;BME280;10104;50.732;10.174;2023-03-25T02:16:54;96797.91;;;8.79;92.96
19884;BME280;10104;50.732;10.174;2023-03-25T02:30:08;96807.03;;;8.50;93.89
19884;BME280;10104;50.732;10.174;2023-03-25T02:33:11;96803.78;;;8.48;94.59
19884;BME280;10104;50.732;10.174;2023-03-25T02:36:12;96808.66;;;8.45;94.48
19884;BME280;10104;50.732;10.174;2023-03-25T02:38:47;96811.06;;;8.46;95.73
19884;BME280;10104;50.732;10.174;2023-03-25T02:41:18;96806.63;;;8.47;96.32
19884;BME280;10104;50.732;10.174;2023-03-25T02:43:55;96804.97;;;8.39;94.43
19884;BME280;10104;50.732;10.174;2023-03-25T02:46:21;96803.56;;;8.37;93.89
19884;BME280;10104;50.732;10.174;2023-03-25T02:48:57;96797.06;;;8.33;93.59
19884;BME280;10104;50.732;10.174;2023-03-25T02:51:27;96810.47;;;8.31;95.04
19884;BME280;10104;50.732;10.174;2023-03-25T02:53:52;96812.22;;;8.24;94.58
19884;BME280;10104;50.732;10.174;2023-03-25T02:56:17;96813.41;;;8.15;95.42
19884;BME280;10104;50.732;10.174;2023-03-25T02:58:43;96803.72;;;8.29;94.77
19884;BME280;10104;50.732;10.174;2023-03-25T03:01:07;96806.34;;;8.22;94.48
19884;BME280;10104;50.732;10.174;2023-03-25T03:03:30;96809.41;;;8.26;93.42
19884;BME280;10104;50.732;10.174;2023-03-25T03:05:56;96795.22;;;8.27;93.15
19884;BME280;10104;50.732;10.174;2023-03-25T03:11:23;96806.16;;;8.24;92.38
19884;BME280;10104;50.732;10.174;2023-03-25T03:14:08;96804.31;;;8.24;92.41
19884;BME280;10104;50.732;10.174;2023-03-25T03:16:50;96811.84;;;8.21;91.91
19884;BME280;10104;50.732;10.174;2023-03-25T03:19:31;96805.28;;;8.10;92.05
19884;BME280;10104;50.732;10.174;2023-03-25T03:24:39;96808.13;;;8.02;93.10
19884;BME280;10104;50.732;10.174;2023-03-25T03:27:10;96809.19;;;8.21;92.97
19884;BME280;10104;50.732;10.174;2023-03-25T03:29:38;96804.09;;;8.12;93.31
19884;BME280;10104;50.732;10.174;2023-03-25T03:32:10;96808.94;;;8.09;92.92
19884;BME280;10104;50.732;10.174;2023-03-25T03:34:54;96805.53;;;8.22;92.20
19884;BME280;10104;50.732;10.174;2023-03-25T03:37:25;96808.16;;;8.22;92.44
19884;BME280;10104;50.732;10.174;2023-03-25T03:39:49;96808.97;;;8.16;92.74
19884;BME280;10104;50.732;10.174;2023-03-25T03:42:29;96801.03;;;8.09;93.16
19884;BME280;10104;50.732;10.174;2023-03-25T03:44:58;96809.19;;;8.14;92.89
19884;BME280;10104;50.732;10.174;2023-03-25T03:47:24;96818.28;;;8.11;92.63
19884;BME280;10104;50.732;10.174;2023-03-25T03:49:56;96806.31;;;8.09;93.51
19884;BME280;10104;50.732;10.174;2023-03-25T03:52:41;96825.56;;;8.03;94.03
19884;BME280;10104;50.732;10.174;2023-03-25T03:55:27;96813.41;;;8.02;93.58
19884;BME280;10104;50.732;10.174;2023-03-25T03:57:55;96819.69;;;8.01;94.55
19884;BME280;10104;50.732;10.174;2023-03-25T04:00:27;96830.63;;;8.04;95.08
19884;BME280;10104;50.732;10.174;2023-03-25T04:05:20;96821.31;;;8.02;97.27
19884;BME280;10104;50.732;10.174;2023-03-25T04:07:47;96823.13;;;8.01;96.98
19884;BME280;10104;50.732;10.174;2023-03-25T04:13:03;96830.22;;;7.94;100.00
19884;BME280;10104;50.732;10.174;2023-03-25T04:15:26;96827.97;;;7.98;98.22
19884;BME280;10104;50.732;10.174;2023-03-25T04:17:47;96818.63;;;7.89;99.75
19884;BME280;10104;50.732;10.174;2023-03-25T04:20:13;96822.44;;;7.80;100.00
19884;BME280;10104;50.732;10.174;2023-03-25T04:22:35;96816.53;;;7.71;100.00
19884;BME280;10104;50.732;10.174;2023-03-25T04:24:59;96816.56;;;7.78;100.00
19884;BME280;10104;50.732;10.174;2023-03-25T04:27:21;96813.53;;;7.81;100.00
19884;BME280;10104;50.732;10.174;2023-03-25T04:29:50;96811.94;;;7.93;100.00
19884;BME280;10104;50.732;10.174;2023-03-25T04:32:14;96811.34;;;7.97;100.00
19884;BME280;10104;50.732;10.174;2023-03-25T04:34:38;96802.25;;;8.00;100.00
19884;BME280;10104;50.732;10.174;2023-03-25T04:36:59;96805.91;;;8.05;100.00
19884;BME280;10104;50.732;10.174;2023-03-25T04:39:22;96805.47;;;7.89;100.00
19884;BME280;10104;50.732;10.174;2023-03-25T04:41:43;96811.53;;;7.83;100.00
19884;BME280;10104;50.732;10.174;2023-03-25T04:44:05;96811.28;;;7.71;100.00
19884;BME280;10104;50.732;10.174;2023-03-25T04:46:29;96819.19;;;7.71;100.00
19884;BME280;10104;50.732;10.174;2023-03-25T04:48:51;96823.38;;;7.65;100.00
19884;BME280;10104;50.732;10.174;2023-03-25T04:51:14;96814.44;;;7.60;100.00
19884;BME280;10104;50.732;10.174;2023-03-25T04:53:36;96823.19;;;7.67;100.00
19884;BME280;10104;50.732;10.174;2023-03-25T04:55:59;96813.25;;;7.62;100.00
19884;BME280;10104;50.732;10.174;2023-03-25T04:58:21;96805.56;;;7.67;100.00
19884;BME280;10104;50.732;10.174;2023-03-25T05:00:48;96808.69;;;7.91;100.00
19884;BME280;10104;50.732;10.174;2023-03-25T05:03:10;96809.28;;;7.86;100.00
19884;BME280;10104;50.732;10.174;2023-03-25T05:05:32;96794.28;;;7.80;100.00
19884;BME280;10104;50.732;10.174;2023-03-25T05:07:54;96804.84;;;7.87;100.00
19884;BME280;10104;50.732;10.174;2023-03-25T05:10:23;96806.47;;;7.88;100.00
19884;BME280;10104;50.732;10.174;2023-03-25T05:12:45;96806.03;;;7.84;100.00
19884;BME280;10104;50.732;10.174;2023-03-25T05:15:08;96804.97;;;7.72;100.00
19884;BME280;10104;50.732;10.174;2023-03-25T05:17:30;96803.78;;;7.75;100.00
19884;BME280;10104;50.732;10.174;2023-03-25T05:19:51;96806.25;;;7.83;100.00
19884;BME280;10104;50.732;10.174;2023-03-25T05:22:13;96817.56;;;7.77;100.00
19884;BME280;10104;50.732;10.174;2023-03-25T05:24:35;96812.72;;;7.80;100.00
19884;BME280;10104;50.732;10.174;2023-03-25T05:26:57;96813.69;;;7.72;100.00
19884;BME280;10104;50.732;10.174;2023-03-25T05:29:22;96803.38;;;7.71;100.00
19884;BME280;10104;50.732;10.174;2023-03-25T05:31:44;96811.66;;;7.68;100.00
19884;BME280;10104;50.732;10.174;2023-03-25T05:34:06;96816.94;;;7.75;100.00
19884;BME280;10104;50.732;10.174;2023-03-25T05:36:28;96816.53;;;7.71;100.00
19884;BME280;10104;50.732;10.174;2023-03-25T05:38:51;96812.47;;;7.68;100.00
19884;BME280;10104;50.732;10.174;2023-03-25T05:41:14;96828.91;;;7.70;100.00
19884;BME280;10104;50.732;10.174;2023-03-25T05:43:38;96828.47;;;7.67;100.00
19884;BME280;10104;50.732;10.174;2023-03-25T05:46:00;96827.09;;;7.71;100.00
19884;BME280;10104;50.732;10.174;2023-03-25T05:48:21;96832.78;;;7.81;100.00
19884;BME280;10104;50.732;10.174;2023-03-25T05:50:43;96837.06;;;7.82;100.00
19884;BME280;10104;50.732;10.174;2023-03-25T05:53:04;96836.25;;;7.82;100.00
19884;BME280;10104;50.732;10.174;2023-03-25T05:55:27;96831.31;;;7.72;100.00
19884;BME280;10104;50.732;10.174;2023-03-25T05:57:48;96867.00;;;7.75;100.00
19884;BME280;10104;50.732;10.174;2023-03-25T06:00:11;96864.06;;;7.56;100.00
19884;BME280;10104;50.732;10.174;2023-03-25T06:02:34;96858.81;;;7.56;100.00
19884;BME280;10104;50.732;10.174;2023-03-25T06:04:59;96865.66;;;7.51;100.00
19884;BME280;10104;50.732;10.174;2023-03-25T06:07:20;96876.63;;;7.54;100.00
19884;BME280;10104;50.732;10.174;2023-03-25T06:09:42;96880.25;;;7.53;100.00
19884;BME280;10104;50.732;10.174;2023-03-25T06:12:06;96868.13;;;7.52;100.00
19884;BME280;10104;50.732;10.174;2023-03-25T06:14:28;96880.84;;;7.49;100.00
19884;BME280;10104;50.732;10.174;2023-03-25T06:16:50;96883.28;;;7.50;100.00
19884;BME280;10104;50.732;10.174;2023-03-25T06:19:11;96868.94;;;7.59;100.00
19884;BME280;10104;50.732;10.174;2023-03-25T06:21:33;96898.31;;;7.56;100.00
19884;BME280;10104;50.732;10.174;2023-03-25T06:23:56;96874.22;;;7.59;100.00
19884;BME280;10104;50.732;10.174;2023-03-25T06:26:21;96871.13;;;7.49;100.00
19884;BME280;10104;50.732;10.174;2023-03-25T06:28:43;96865.31;;;7.60;100.00
19884;BME280;10104;50.732;10.174;2023-03-25T06:31:13;96876.25;;;7.57;100.00
19884;BME280;10104;50.732;10.174;2023-03-25T06:33:37;96874.72;;;7.76;100.00
19884;BME280;10104;50.732;10.174;2023-03-25T06:36:03;96858.88;;;7.69;100.00
19884;BME280;10104;50.732;10.174;2023-03-25T06:38:25;96869.66;;;7.75;100.00
19884;BME280;10104;50.732;10.174;2023-03-25T06:40:47;96872.09;;;7.76;100.00
19884;BME280;10104;50.732;10.174;2023-03-25T06:43:08;96864.66;;;7.93;100.00
19884;BME280;10104;50.732;10.174;2023-03-25T06:45:30;96871.16;;;7.97;100.00
19884;BME280;10104;50.732;10.174;2023-03-25T06:47:53;96870.13;;;7.91;100.00
19884;BME280;10104;50.732;10.174;2023-03-25T06:50:15;96889.97;;;7.87;100.00
19884;BME280;10104;50.732;10.174;2023-03-25T06:52:36;96880.88;;;7.90;100.00
19884;BME280;10104;50.732;10.174;2023-03-25T06:54:58;96872.53;;;7.86;100.00
19884;BME280;10104;50.732;10.174;2023-03-25T06:57:19;96870.91;;;7.85;100.00
19884;BME280;10104;50.732;10.174;2023-03-25T06:59:41;96878.25;;;7.90;100.00
19884;BME280;10104;50.732;10.174;2023-03-25T07:02:02;96877.22;;;7.91;100.00
19884;BME280;10104;50.732;10.174;2023-03-25T07:04:24;96884.31;;;7.97;100.00
19884;BME280;10104;50.732;10.174;2023-03-25T07:06:46;96891.22;;;7.98;100.00
19884;BME280;10104;50.732;10.174;2023-03-25T07:09:07;96886.59;;;8.00;100.00
19884;BME280;10104;50.732;10.174;2023-03-25T07:11:29;96903.38;;;7.92;100.00
19884;BME280;10104;50.732;10.174;2023-03-25T07:13:51;96909.19;;;7.81;100.00
19884;BME280;10104;50.732;10.174;2023-03-25T07:16:14;96905.16;;;7.85;100.00
19884;BME280;10104;50.732;10.174;2023-03-25T07:18:35;96934.91;;;7.79;100.00
19884;BME280;10104;50.732;10.174;2023-03-25T07:20:57;96911.34;;;7.64;100.00
19884;BME280;10104;50.732;10.174;2023-03-25T07:23:19;96898.19;;;7.64;100.00
19884;BME280;10104;50.732;10.174;2023-03-25T07:25:40;96896.59;;;7.70;100.00
19884;BME280;10104;50.732;10.174;2023-03-25T07:28:02;96885.03;;;7.71;98.79
19884;BME280;10104;50.732;10.174;2023-03-25T07:30:24;96897.72;;;7.61;100.00
19884;BME280;10104;50.732;10.174;2023-03-25T07:32:45;96898.09;;;7.51;100.00
19884;BME280;10104;50.732;10.174;2023-03-25T07:35:07;96906.00;;;7.51;99.54
19884;BME280;10104;50.732;10.174;2023-03-25T07:37:29;96914.78;;;7.65;99.55
19884;BME280;10104;50.732;10.174;2023-03-25T07:39:51;96901.53;;;7.86;99.93
19884;BME280;10104;50.732;10.174;2023-03-25T07:42:13;96906.00;;;7.92;98.73
19884;BME280;10104;50.732;10.174;2023-03-25T07:44:34;96901.59;;;7.99;99.71
19884;BME280;10104;50.732;10.174;2023-03-25T07:46:56;96906.47;;;8.09;98.79
19884;BME280;10104;50.732;10.174;2023-03-25T07:49:17;96905.72;;;8.22;99.78
19884;BME280;10104;50.732;10.174;2023-03-25T07:51:39;96904.13;;;8.27;98.44
19884;BME280;10104;50.732;10.174;2023-03-25T07:54:00;96898.84;;;8.21;97.43
19884;BME280;10104;50.732;10.174;2023-03-25T07:56:26;96895.88;;;8.37;97.10
19884;BME280;10104;50.732;10.174;2023-03-25T07:58:48;96897.88;;;8.35;97.19
19884;BME280;10104;50.732;10.174;2023-03-25T08:01:10;96894.13;;;8.64;98.10
19884;BME280;10104;50.732;10.174;2023-03-25T08:03:31;96908.31;;;8.63;96.89
19884;BME280;10104;50.732;10.174;2023-03-25T08:05:54;96899.38;;;8.50;96.00
19884;BME280;10104;50.732;10.174;2023-03-25T08:08:15;96918.06;;;8.69;95.69
19884;BME280;10104;50.732;10.174;2023-03-25T08:10:37;96909.94;;;8.64;95.94
19884;BME280;10104;50.732;10.174;2023-03-25T08:12:58;96898.13;;;8.53;96.49
19884;BME280;10104;50.732;10.174;2023-03-25T08:15:20;96908.13;;;8.58;96.94
19884;BME280;10104;50.732;10.174;2023-03-25T08:17:45;96908.94;;;8.71;94.63
19884;BME280;10104;50.732;10.174;2023-03-25T08:20:07;96900.00;;;8.72;97.11
19884;BME280;10104;50.732;10.174;2023-03-25T08:22:29;96888.03;;;8.89;95.33
19884;BME280;10104;50.732;10.174;2023-03-25T08:24:51;96906.31;;;8.98;94.18
19884;BME280;10104;50.732;10.174;2023-03-25T08:27:12;96909.78;;;9.05;94.73
19884;BME280;10104;50.732;10.174;2023-03-25T08:29:37;96923.00;;;9.24;93.28
19884;BME280;10104;50.732;10.174;2023-03-25T08:31:59;96921.38;;;9.30;92.51
19884;BME280;10104;50.732;10.174;2023-03-25T08:34:21;96936.97;;;8.85;92.40
19884;BME280;10104;50.732;10.174;2023-03-25T08:36:48;96924.19;;;9.02;93.54
19884;BME280;10104;50.732;10.174;2023-03-25T08:39:10;96925.44;;;9.13;93.23
19884;BME280;10104;50.732;10.174;2023-03-25T08:41:32;96924.59;;;9.32;92.46
19884;BME280;10104;50.732;10.174;2023-03-25T08:43:54;96919.75;;;9.42;90.60
19884;BME280;10104;50.732;10.174;2023-03-25T08:46:16;96936.19;;;9.57;89.29
19884;BME280;10104;50.732;10.174;2023-03-25T08:48:37;96917.84;;;9.75;89.64
19884;BME280;10104;50.732;10.174;2023-03-25T08:50:59;96909.66;;;9.97;88.80
19884;BME280;10104;50.732;10.174;2023-03-25T08:53:21;96905.84;;;9.86;87.59
19884;BME280;10104;50.732;10.174;2023-03-25T08:55:42;96902.00;;;9.69;86.64
19884;BME280;10104;50.732;10.174;2023-03-25T08:58:04;96904.47;;;9.64;86.66
19884;BME280;10104;50.732;10.174;2023-03-25T09:00:28;96906.50;;;9.75;89.97
19884;BME280;10104;50.732;10.174;2023-03-25T09:02:50;96912.31;;;9.97;90.60
19884;BME280;10104;50.732;10.174;2023-03-25T09:05:11;96919.38;;;10.09;87.83
19884;BME280;10104;50.732;10.174;2023-03-25T09:07:33;96909.88;;;9.95;83.85
19884;BME280;10104;50.732;10.174;2023-03-25T09:09:56;96906.00;;;9.98;86.42
19884;BME280;10104;50.732;10.174;2023-03-25T09:12:18;96899.44;;;10.07;90.51
19884;BME280;10104;50.732;10.174;2023-03-25T09:14:40;96897.69;;;9.88;85.05
19884;BME280;10104;50.732;10.174;2023-03-25T09:17:02;96916.78;;;10.03;87.51
19884;BME280;10104;50.732;10.174;2023-03-25T09:19:26;96901.78;;;10.41;87.29
19884;BME280;10104;50.732;10.174;2023-03-25T09:21:47;96900.66;;;10.24;85.09
19884;BME280;10104;50.732;10.174;2023-03-25T09:24:09;96895.69;;;10.41;86.02
19884;BME280;10104;50.732;10.174;2023-03-25T09:26:30;96901.03;;;10.28;84.52
19884;BME280;10104;50.732;10.174;2023-03-25T09:28:52;96901.03;;;10.28;83.76
19884;BME280;10104;50.732;10.174;2023-03-25T09:31:15;96894.75;;;10.15;84.25
19884;BME280;10104;50.732;10.174;2023-03-25T09:33:37;96890.69;;;10.13;85.50
19884;BME280;10104;50.732;10.174;2023-03-25T09:35:59;96902.50;;;10.24;86.52
19884;BME280;10104;50.732;10.174;2023-03-25T09:38:20;96900.44;;;10.26;82.56
19884;BME280;10104;50.732;10.174;2023-03-25T09:40:43;96895.66;;;10.47;82.02
19884;BME280;10104;50.732;10.174;2023-03-25T09:45:47;96898.59;;;10.64;83.66
19884;BME280;10104;50.732;10.174;2023-03-25T09:48:30;96891.56;;;10.83;85.81
19884;BME280;10104;50.732;10.174;2023-03-25T09:50:53;96889.16;;;10.75;80.53
19884;BME280;10104;50.732;10.174;2023-03-25T09:55:46;96879.09;;;11.15;75.77
19884;BME280;10104;50.732;10.174;2023-03-25T10:00:43;96889.03;;;11.44;75.23
19884;BME280;10104;50.732;10.174;2023-03-25T10:06:21;96876.00;;;11.18;73.69
19884;BME280;10104;50.732;10.174;2023-03-25T10:09:11;96876.66;;;11.38;70.82
19884;BME280;10104;50.732;10.174;2023-03-25T10:11:49;96877.53;;;11.93;72.49
19884;BME280;10104;50.732;10.174;2023-03-25T10:14:19;96870.47;;;11.87;67.50
19884;BME280;10104;50.732;10.174;2023-03-25T10:16:47;96873.97;;;11.63;65.99
19884;BME280;10104;50.732;10.174;2023-03-25T10:19:32;96861.25;;;11.28;69.26
19884;BME280;10104;50.732;10.174;2023-03-25T10:22:02;96853.72;;;11.68;72.82
19884;BME280;10104;50.732;10.174;2023-03-25T10:24:28;96863.22;;;11.58;69.40
19884;BME280;10104;50.732;10.174;2023-03-25T10:30:10;96850.66;;;12.68;66.72
19884;BME280;10104;50.732;10.174;2023-03-25T10:34:56;96855.69;;;13.11;64.83
19884;BME280;10104;50.732;10.174;2023-03-25T10:37:24;96855.41;;;13.30;65.69
19884;BME280;10104;50.732;10.174;2023-03-25T10:39:49;96847.06;;;13.27;63.89
19884;BME280;10104;50.732;10.174;2023-03-25T10:44:44;96828.91;;;12.29;64.46
19884;BME280;10104;50.732;10.174;2023-03-25T10:47:11;96846.88;;;11.97;68.39
19884;BME280;10104;50.732;10.174;2023-03-25T10:49:35;96846.97;;;12.09;68.82
19884;BME280;10104;50.732;10.174;2023-03-25T10:51:58;96856.88;;;11.59;71.24
19884;BME280;10104;50.732;10.174;2023-03-25T10:54:21;96855.84;;;11.42;76.22
19884;BME280;10104;50.732;10.174;2023-03-25T10:56:46;96906.81;;;10.87;81.42
19884;BME280;10104;50.732;10.174;2023-03-25T10:59:32;97011.59;;;9.66;89.37
19884;BME280;10104;50.732;10.174;2023-03-25T11:01:56;97022.66;;;8.35;89.30
19884;BME280;10104;50.732;10.174;2023-03-25T11:04:20;97032.84;;;7.55;90.45
19884;BME280;10104;50.732;10.174;2023-03-25T11:06:46;97028.66;;;7.39;94.33
19884;BME280;10104;50.732;10.174;2023-03-25T11:11:36;97007.47;;;6.83;97.89
19884;BME280;10104;50.732;10.174;2023-03-25T11:13:57;97020.22;;;6.65;97.25
19884;BME280;10104;50.732;10.174;2023-03-25T11:16:19;97028.59;;;6.54;100.00
19884;BME280;10104;50.732;10.174;2023-03-25T11:18:40;97021.06;;;6.36;99.27
19884;BME280;10104;50.732;10.174;2023-03-25T11:21:12;96998.03;;;6.38;100.00
19884;BME280;10104;50.732;10.174;2023-03-25T11:23:43;96974.03;;;6.63;100.00
19884;BME280;10104;50.732;10.174;2023-03-25T11:26:17;96977.28;;;7.01;98.86
19884;BME280;10104;50.732;10.174;2023-03-25T11:28:50;96957.72;;;7.59;95.84
19884;BME280;10104;50.732;10.174;2023-03-25T11:31:19;96944.13;;;7.90;93.25
19884;BME280;10104;50.732;10.174;2023-03-25T11:33:44;96939.91;;;8.36;90.85
19884;BME280;10104;50.732;10.174;2023-03-25T11:36:20;96941.44;;;8.85;88.24
19884;BME280;10104;50.732;10.174;2023-03-25T11:38:45;96934.78;;;9.15;83.88
19884;BME280;10104;50.732;10.174;2023-03-25T11:41:07;96935.78;;;9.47;83.41
19884;BME280;10104;50.732;10.174;2023-03-25T11:43:34;96927.03;;;9.66;84.73
19884;BME280;10104;50.732;10.174;2023-03-25T11:45:57;96918.91;;;9.55;84.38
19884;BME280;10104;50.732;10.174;2023-03-25T11:48:30;96924.78;;;9.70;82.57
19884;BME280;10104;50.732;10.174;2023-03-25T11:51:00;96929.06;;;9.58;84.51
19884;BME280;10104;50.732;10.174;2023-03-25T11:53:24;96926.22;;;9.66;82.51
19884;BME280;10104;50.732;10.174;2023-03-25T11:55:53;96921.13;;;9.58;82.16
19884;BME280;10104;50.732;10.174;2023-03-25T11:58:25;96918.84;;;9.88;84.82
19884;BME280;10104;50.732;10.174;2023-03-25T12:00:51;96909.78;;;10.28;82.12
19884;BME280;10104;50.732;10.174;2023-03-25T12:05:37;96892.56;;;10.06;87.04
19884;BME280;10104;50.732;10.174;2023-03-25T12:08:11;96885.81;;;10.23;86.55
19884;BME280;10104;50.732;10.174;2023-03-25T12:18:53;96886.25;;;10.51;89.62
19884;BME280;10104;50.732;10.174;2023-03-25T12:26:41;96898.13;;;11.05;82.39
19884;BME280;10104;50.732;10.174;2023-03-25T12:29:13;96887.31;;;11.07;77.11
19884;BME280;10104;50.732;10.174;2023-03-25T12:37:39;96906.16;;;11.66;77.13
19884;BME280;10104;50.732;10.174;2023-03-25T12:47:41;96866.69;;;12.73;66.91
19884;BME280;10104;50.732;10.174;2023-03-25T12:52:42;96873.69;;;12.26;66.82
19884;BME280;10104;50.732;10.174;2023-03-25T13:00:44;96859.78;;;13.25;66.07
19884;BME280;10104;50.732;10.174;2023-03-25T13:03:22;96848.84;;;13.96;62.60
19884;BME280;10104;50.732;10.174;2023-03-25T13:08:55;96850.13;;;15.07;58.46
19884;BME280;10104;50.732;10.174;2023-03-25T13:11:23;96836.06;;;15.62;53.28
19884;BME280;10104;50.732;10.174;2023-03-25T13:13:51;96832.03;;;15.26;57.90
19884;BME280;10104;50.732;10.174;2023-03-25T13:16:17;96828.28;;;14.60;59.48
19884;BME280;10104;50.732;10.174;2023-03-25T13:18:46;96810.63;;;13.74;61.65
19884;BME280;10104;50.732;10.174;2023-03-25T13:23:37;96819.97;;;12.83;68.48
19884;BME280;10104;50.732;10.174;2023-03-25T13:28:34;96812.13;;;12.47;65.14
19884;BME280;10104;50.732;10.174;2023-03-25T13:31:00;96811.69;;;12.50;73.37
19884;BME280;10104;50.732;10.174;2023-03-25T13:33:25;96808.16;;;12.26;73.60
19884;BME280;10104;50.732;10.174;2023-03-25T13:38:41;96794.38;;;12.18;70.57
19884;BME280;10104;50.732;10.174;2023-03-25T13:41:09;96810.81;;;12.26;70.41
19884;BME280;10104;50.732;10.174;2023-03-25T13:43:36;96799.91;;;12.16;68.94
19884;BME280;10104;50.732;10.174;2023-03-25T13:46:08;96786.84;;;12.03;70.65
19884;BME280;10104;50.732;10.174;2023-03-25T13:48:40;96808.63;;;12.05;69.44
19884;BME280;10104;50.732;10.174;2023-03-25T13:51:04;96801.50;;;11.69;68.64
19884;BME280;10104;50.732;10.174;2023-03-25T13:53:32;96783.81;;;11.63;69.08
19884;BME280;10104;50.732;10.174;2023-03-25T14:04:29;96787.94;;;11.59;71.53
19884;BME280;10104;50.732;10.174;2023-03-25T14:10:18;96792.34;;;12.01;70.14
19884;BME280;10104;50.732;10.174;2023-03-25T14:12:49;96784.69;;;11.93;71.53
19884;BME280;10104;50.732;10.174;2023-03-25T14:15:14;96792.72;;;12.05;72.49
19884;BME280;10104;50.732;10.174;2023-03-25T14:17:39;96794.38;;;12.18;69.19
19884;BME280;10104;50.732;10.174;2023-03-25T14:20:04;96780.59;;;12.27;67.52
19884;BME280;10104;50.732;10.174;2023-03-25T14:22:35;96792.53;;;12.18;64.14
19884;BME280;10104;50.732;10.174;2023-03-25T14:25:02;96795.72;;;12.38;66.65
19884;BME280;10104;50.732;10.174;2023-03-25T14:27:29;96782.69;;;12.48;71.11